Time;durP1;ratioP1;P1;durP2;ratioP2;P2;SDS_P1;SDS_P2;PMS_P1;PMS_P2;Temp;Humidity;BMP_temperature;BMP_pressure;BME280_temperature;BME280_humidity;BME280_pressure;Samples;Min_cycle;Max_cycle;Signal;HPM_P1;HPM_P2
2022/09/06 00:00:16;;;;;;;11.63;5.03;;;20.50;96.90;;;;;;4901080;29;20052;-94
2022/09/06 00:02:43;;;;;;;10.32;5.40;;;20.30;97.00;;;;;;4901398;29;20493;-94
2022/09/06 00:05:28;;;;;;;8.68;4.93;;;20.30;97.00;;;;;;4901142;29;20051;-94
2022/09/06 00:07:54;;;;;;;9.77;5.10;;;20.30;97.10;;;;;;4939185;23;20221;-94
2022/09/06 00:10:19;;;;;;;10.05;4.90;;;20.30;97.20;;;;;;4878605;29;20061;-95
2022/09/06 00:12:46;;;;;;;10.05;5.03;;;20.90;97.60;;;;;;4880020;29;20043;-94
2022/09/06 00:15:21;;;;;;;10.23;5.18;;;20.20;97.50;;;;;;4879868;29;20049;-94
2022/09/06 00:17:48;;;;;;;11.35;5.15;;;20.70;97.80;;;;;;4909880;29;20056;-94
2022/09/06 00:20:14;;;;;;;10.60;5.18;;;20.10;97.70;;;;;;4879629;29;20053;-94
2022/09/06 00:22:39;;;;;;;11.75;5.15;;;20.10;97.90;;;;;;4879623;29;20082;-95
2022/09/06 00:25:30;;;;;;;10.23;5.13;;;20.60;98.20;;;;;;4880107;29;20053;-94
2022/09/06 00:27:57;;;;;;;10.35;5.13;;;20.00;98.20;;;;;;4878691;29;20049;-94
2022/09/06 00:30:23;;;;;;;10.65;5.20;;;20.50;98.30;;;;;;4878620;29;20056;-94
2022/09/06 00:32:49;;;;;;;9.15;5.10;;;20.50;98.40;;;;;;4885862;29;20127;-94
2022/09/06 00:35:16;;;;;;;10.65;5.60;;;20.00;98.40;;;;;;4878107;29;20140;-95
2022/09/06 00:37:48;;;;;;;10.80;5.18;;;19.70;98.40;;;;;;4908882;29;20097;-94
2022/09/06 00:40:34;;;;;;;10.20;5.45;;;20.50;98.80;;;;;;4879289;29;20101;-94
2022/09/06 00:43:43;;;;;;;10.73;5.75;;;20.30;98.80;;;;;;4879506;29;20514;-94
2022/09/06 00:46:13;;;;;;;9.63;5.50;;;20.00;99.10;;;;;;4909261;29;20064;-94
2022/09/06 00:48:41;;;;;;;10.45;5.47;;;20.60;99.10;;;;;;4879375;29;20052;-94
2022/09/06 00:51:29;;;;;;;11.77;5.88;;;19.90;99.00;;;;;;4909322;29;20117;-94
2022/09/06 00:53:55;;;;;;;10.38;5.55;;;19.90;99.30;;;;;;4878137;29;20528;-94
2022/09/06 01:05:39;;;;;;;10.38;5.72;;;19.70;99.60;;;;;;5006054;23;20070;-94
2022/09/06 01:08:36;;;;;;;11.73;5.65;;;19.80;99.80;;;;;;4900163;29;20059;-95
2022/09/06 01:11:14;;;;;;;11.48;5.75;;;19.70;99.90;;;;;;4900001;29;20359;-95
2022/09/06 01:13:57;;;;;;;10.25;5.78;;;19.70;99.90;;;;;;4900280;29;20040;-94
2022/09/06 01:16:39;;;;;;;10.57;5.25;;;19.70;99.90;;;;;;4916739;29;20088;-95
2022/09/06 01:19:27;;;;;;;10.00;5.85;;;19.60;99.90;;;;;;4900091;29;20100;-95
2022/09/06 01:22:18;;;;;;;11.70;5.90;;;19.70;99.90;;;;;;4900460;29;20048;-94
2022/09/06 01:25:24;;;;;;;12.05;6.10;;;19.60;99.90;;;;;;4916854;29;20092;-94
2022/09/06 01:28:09;;;;;;;10.27;6.13;;;19.60;99.90;;;;;;4931657;29;20044;-94
2022/09/06 01:30:39;;;;;;;10.23;5.80;;;19.60;99.90;;;;;;4899415;29;20148;-94
2022/09/06 01:33:43;;;;;;;11.00;5.78;;;19.70;99.90;;;;;;4900164;29;20474;-94
2022/09/06 01:36:15;;;;;;;10.00;6.00;;;19.60;99.90;;;;;;4880439;29;20183;-94
2022/09/06 01:38:41;;;;;;;10.80;6.00;;;19.60;99.90;;;;;;4895683;29;20117;-92
2022/09/06 01:41:07;;;;;;;10.05;5.72;;;19.50;99.90;;;;;;4890503;29;20511;-93
2022/09/06 01:43:38;;;;;;;11.68;6.20;;;19.90;99.90;;;;;;4900066;29;20248;-94
2022/09/06 01:46:27;;;;;;;10.18;5.68;;;19.60;99.90;;;;;;4916076;29;20397;-93
2022/09/06 01:49:36;;;;;;;10.40;5.57;;;19.50;99.90;;;;;;4920102;29;20106;-94
2022/09/06 01:52:22;;;;;;;10.80;5.88;;;19.50;99.90;;;;;;4914077;29;20048;-94
2022/09/06 01:55:11;;;;;;;12.60;5.47;;;19.50;99.90;;;;;;4904225;29;20130;-94
2022/09/06 01:57:47;;;;;;;11.00;5.55;;;19.50;99.90;;;;;;4903953;29;20067;-94
2022/09/06 02:00:21;;;;;;;11.65;5.63;;;19.50;99.90;;;;;;4920598;29;20055;-93
2022/09/06 02:31:20;;;;;;;11.15;6.10;;;19.20;99.90;;;;;;4901208;29;20056;-94
2022/09/06 02:34:02;;;;;;;10.63;5.97;;;20.10;99.90;;;;;;4883916;29;20390;-95
2022/09/06 02:48:56;;;;;;;10.10;5.97;;;19.00;99.90;;;;;;4900926;29;20039;-94
2022/09/06 03:05:56;;;;;;;10.95;6.25;;;18.90;99.90;;;;;;5060024;23;20044;-95
2022/09/06 03:09:05;;;;;;;12.48;6.50;;;19.10;99.90;;;;;;4901816;29;20048;-94
2022/09/06 03:14:08;;;;;;;12.00;6.28;;;18.80;99.90;;;;;;5109967;23;20393;-94
2022/09/06 03:16:35;;;;;;;10.50;6.07;;;18.80;99.90;;;;;;4918614;29;20051;-94
2022/09/06 03:19:01;;;;;;;11.23;6.95;;;19.00;99.90;;;;;;4902361;29;20044;-94
2022/09/06 03:21:27;;;;;;;10.32;6.18;;;18.70;99.90;;;;;;4918722;29;20119;-94
2022/09/06 03:23:53;;;;;;;11.10;6.60;;;18.70;99.90;;;;;;4901166;29;20050;-94
2022/09/06 03:26:19;;;;;;;10.52;6.65;;;18.70;99.90;;;;;;4918997;29;20048;-94
2022/09/06 03:28:44;;;;;;;10.90;6.40;;;18.60;99.90;;;;;;4901777;29;20063;-94
2022/09/06 03:31:10;;;;;;;11.65;6.75;;;18.60;99.90;;;;;;4901458;29;20107;-94
2022/09/06 03:33:36;;;;;;;10.23;6.70;;;18.60;99.90;;;;;;4901434;29;20063;-94
2022/09/06 03:36:02;;;;;;;11.20;6.57;;;19.00;99.90;;;;;;4904095;29;20076;-94
2022/09/06 03:38:28;;;;;;;10.73;6.72;;;18.60;99.90;;;;;;4901252;29;20051;-94
2022/09/06 03:40:54;;;;;;;11.98;6.65;;;18.60;99.90;;;;;;4918875;29;20477;-94
2022/09/06 03:43:24;;;;;;;12.02;7.07;;;18.50;99.90;;;;;;4919575;29;20048;-95
2022/09/06 03:52:22;;;;;;;11.88;6.80;;;18.20;99.90;;;;;;4918015;29;20579;-94
2022/09/06 03:54:57;;;;;;;12.00;6.88;;;18.60;99.90;;;;;;4901315;29;20408;-94
2022/09/06 03:57:22;;;;;;;13.43;7.45;;;19.40;99.90;;;;;;4902554;29;20056;-93
2022/09/06 03:59:48;;;;;;;13.00;6.88;;;18.90;99.90;;;;;;4926296;23;20059;-94
2022/09/06 04:02:15;;;;;;;11.20;6.90;;;18.70;99.90;;;;;;4913288;29;20049;-94
2022/09/06 04:07:22;;;;;;;10.80;6.95;;;18.40;99.90;;;;;;5295606;23;20057;-94
2022/09/06 04:13:49;;;;;;;12.25;7.25;;;18.30;99.90;;;;;;4881325;29;20060;-93
2022/09/06 04:27:17;;;;;;;12.70;7.55;;;18.40;99.90;;;;;;4900686;29;20061;-94
2022/09/06 04:30:42;;;;;;;12.10;6.72;;;18.40;99.90;;;;;;4904517;29;20065;-93
2022/09/06 04:44:21;;;;;;;12.55;7.53;;;18.50;99.90;;;;;;4952834;23;20124;-94
2022/09/06 04:46:50;;;;;;;12.07;8.00;;;18.40;99.90;;;;;;4864017;29;20141;-93
2022/09/06 04:49:15;;;;;;;14.07;7.75;;;18.40;99.90;;;;;;4865282;29;20041;-93
2022/09/06 04:51:44;;;;;;;12.93;7.82;;;18.50;99.90;;;;;;4865880;29;20120;-95
2022/09/06 04:54:35;;;;;;;12.82;7.55;;;18.70;99.90;;;;;;5198885;23;20047;-94
2022/09/06 04:57:16;;;;;;;11.35;7.15;;;18.50;99.90;;;;;;4918532;29;20110;-85
2022/09/06 04:59:41;;;;;;;13.30;7.43;;;18.40;99.90;;;;;;4899528;29;20044;-85
2022/09/06 05:02:07;;;;;;;11.82;7.50;;;19.10;99.90;;;;;;4899041;29;20489;-80
2022/09/06 05:04:32;;;;;;;16.02;8.25;;;18.50;99.90;;;;;;4916091;29;20128;-80
2022/09/06 05:07:03;;;;;;;13.55;8.05;;;19.00;99.90;;;;;;4916261;29;20504;-81
2022/09/06 05:09:30;;;;;;;13.35;7.75;;;18.50;99.90;;;;;;4915347;29;20052;-82
2022/09/06 05:11:55;;;;;;;14.65;7.75;;;18.50;99.90;;;;;;4899553;29;20461;-81
2022/09/06 05:14:21;;;;;;;11.68;7.70;;;18.50;99.90;;;;;;4915904;29;20055;-82
2022/09/06 05:16:47;;;;;;;12.88;8.48;;;18.50;99.90;;;;;;4915535;29;20036;-81
2022/09/06 05:19:16;;;;;;;13.48;7.90;;;18.50;99.90;;;;;;4899203;29;20040;-82
2022/09/06 05:21:41;;;;;;;13.88;8.13;;;18.50;99.90;;;;;;4915969;29;20044;-81
2022/09/06 05:24:07;;;;;;;13.95;8.40;;;18.50;99.90;;;;;;4897899;29;20059;-82
2022/09/06 05:26:36;;;;;;;12.68;8.13;;;18.50;99.90;;;;;;4898747;29;20054;-81
2022/09/06 05:29:01;;;;;;;16.38;8.30;;;18.50;99.90;;;;;;4898245;29;20052;-81
2022/09/06 05:31:33;;;;;;;14.23;8.50;;;18.50;99.90;;;;;;4898602;29;20389;-83
2022/09/06 05:33:59;;;;;;;13.68;8.73;;;18.40;99.90;;;;;;4898961;29;20509;-82
2022/09/06 05:36:26;;;;;;;12.50;8.82;;;18.40;99.90;;;;;;4915238;29;20048;-82
2022/09/06 05:38:53;;;;;;;13.45;9.05;;;18.40;99.90;;;;;;4898985;29;20059;-82
2022/09/06 05:41:20;;;;;;;17.67;9.00;;;18.30;99.90;;;;;;4904221;29;20063;-82
2022/09/06 05:43:46;;;;;;;13.75;9.38;;;18.40;99.90;;;;;;4924413;29;20051;-82
2022/09/06 05:46:14;;;;;;;13.05;9.10;;;18.30;99.90;;;;;;4935084;29;20122;-82
2022/09/06 05:48:40;;;;;;;14.63;9.57;;;18.20;99.90;;;;;;4935292;29;20075;-82
2022/09/06 05:51:08;;;;;;;14.75;9.23;;;18.70;99.90;;;;;;4917451;29;20083;-82
2022/09/06 05:53:43;;;;;;;15.65;9.35;;;18.20;99.90;;;;;;4917591;29;20060;-82
2022/09/06 05:56:15;;;;;;;15.40;10.18;;;18.10;99.90;;;;;;4934803;29;20519;-82
2022/09/06 05:58:41;;;;;;;14.35;9.77;;;18.30;99.90;;;;;;4934478;29;20122;-83
2022/09/06 06:01:15;;;;;;;15.32;10.13;;;18.50;99.90;;;;;;4917674;29;20130;-82
2022/09/06 06:03:42;;;;;;;16.90;9.57;;;18.10;99.90;;;;;;4918164;29;20059;-82
2022/09/06 06:06:08;;;;;;;15.25;10.88;;;18.10;99.90;;;;;;4917316;29;20047;-83
2022/09/06 06:08:38;;;;;;;15.85;10.18;;;18.10;99.90;;;;;;4917709;29;20404;-83
2022/09/06 06:11:04;;;;;;;17.40;10.77;;;18.30;99.90;;;;;;4916790;29;20138;-84
2022/09/06 06:13:33;;;;;;;14.32;10.52;;;18.10;99.90;;;;;;4917344;29;20126;-85
2022/09/06 06:15:59;;;;;;;14.35;10.02;;;18.00;99.90;;;;;;4917874;29;20063;-83
2022/09/06 06:18:25;;;;;;;14.23;10.40;;;18.10;99.90;;;;;;4933753;29;20488;-83
2022/09/06 06:20:51;;;;;;;14.68;9.90;;;18.10;99.90;;;;;;4917905;29;20118;-84
2022/09/06 06:23:16;;;;;;;15.80;9.55;;;18.10;99.90;;;;;;4917428;29;20397;-84
2022/09/06 06:25:42;;;;;;;14.45;8.95;;;18.10;99.90;;;;;;4934386;29;20035;-84
2022/09/06 06:28:07;;;;;;;14.10;9.80;;;18.10;99.90;;;;;;4934526;29;20104;-83
2022/09/06 06:30:33;;;;;;;15.10;9.90;;;18.30;99.90;;;;;;4917036;29;20190;-83
2022/09/06 06:32:59;;;;;;;14.20;9.82;;;18.10;99.90;;;;;;4933767;29;20130;-83
2022/09/06 06:35:24;;;;;;;14.63;9.50;;;18.10;99.90;;;;;;4937700;29;20066;-83
2022/09/06 06:37:50;;;;;;;14.18;9.95;;;18.10;99.90;;;;;;4920843;29;20039;-79
2022/09/06 06:40:16;;;;;;;15.25;9.95;;;18.10;99.90;;;;;;4937401;29;20390;-80
2022/09/06 06:42:41;;;;;;;16.52;10.55;;;18.10;99.90;;;;;;4931990;29;20412;-79
2022/09/06 06:45:07;;;;;;;18.30;10.77;;;18.10;99.90;;;;;;4912358;29;20048;-79
2022/09/06 06:47:33;;;;;;;15.05;11.02;;;18.20;99.90;;;;;;4937115;29;20965;-79
2022/09/06 06:49:58;;;;;;;16.48;11.73;;;18.20;99.90;;;;;;4920737;29;20516;-80
2022/09/06 06:52:24;;;;;;;16.15;10.95;;;18.30;99.90;;;;;;4935335;29;20394;-79
2022/09/06 06:54:50;;;;;;;18.80;10.20;;;18.20;99.90;;;;;;4900978;29;20060;-80
2022/09/06 06:57:16;;;;;;;18.08;10.48;;;18.20;99.90;;;;;;4901672;29;20051;-80
2022/09/06 06:59:41;;;;;;;14.68;10.00;;;18.20;99.90;;;;;;4901798;29;20040;-80
2022/09/06 07:02:07;;;;;;;16.00;11.02;;;18.30;99.90;;;;;;4918179;29;20123;-80
2022/09/06 07:04:32;;;;;;;16.55;11.38;;;18.40;99.90;;;;;;4918585;29;20393;-80
2022/09/06 07:06:58;;;;;;;18.48;12.57;;;18.60;99.90;;;;;;4918771;29;20044;-80
2022/09/06 07:09:24;;;;;;;20.33;12.63;;;18.40;99.90;;;;;;4917281;29;20164;-80
2022/09/06 07:11:50;;;;;;;18.73;13.40;;;18.40;99.90;;;;;;4901781;29;20048;-80
2022/09/06 07:14:17;;;;;;;18.38;13.40;;;18.40;99.90;;;;;;4918021;29;20437;-81
2022/09/06 07:16:43;;;;;;;17.90;12.82;;;18.40;99.90;;;;;;4917803;29;20055;-80
2022/09/06 07:19:09;;;;;;;18.23;12.93;;;18.40;99.90;;;;;;4917707;29;20123;-81
2022/09/06 07:21:34;;;;;;;18.73;13.23;;;18.50;99.90;;;;;;4917567;29;20476;-81
2022/09/06 07:24:00;;;;;;;18.67;12.70;;;18.50;99.90;;;;;;4918203;29;20044;-81
2022/09/06 07:26:28;;;;;;;19.92;13.77;;;18.50;99.90;;;;;;4900963;29;20084;-80
2022/09/06 07:28:59;;;;;;;17.15;12.90;;;18.50;99.90;;;;;;4900494;29;20056;-81
2022/09/06 07:31:26;;;;;;;20.20;13.32;;;18.50;99.90;;;;;;4903510;29;20511;-81
2022/09/06 07:33:52;;;;;;;19.98;13.13;;;18.60;99.90;;;;;;4918251;29;20055;-80
2022/09/06 07:36:18;;;;;;;18.88;13.23;;;18.60;99.90;;;;;;4900167;29;20048;-81
2022/09/06 07:38:48;;;;;;;18.52;13.02;;;18.70;99.90;;;;;;4900874;29;20058;-81
2022/09/06 07:41:14;;;;;;;20.17;13.15;;;18.80;99.90;;;;;;4900693;29;20056;-81
2022/09/06 07:43:40;;;;;;;19.00;13.93;;;19.00;99.90;;;;;;4917312;29;20115;-81
2022/09/06 07:46:07;;;;;;;21.13;14.07;;;18.80;99.90;;;;;;4917507;29;20047;-81
2022/09/06 07:48:34;;;;;;;20.00;13.30;;;18.80;99.90;;;;;;4917462;29;20076;-81
2022/09/06 07:51:05;;;;;;;19.13;14.32;;;18.80;99.90;;;;;;4900283;29;20158;-81
2022/09/06 07:53:31;;;;;;;20.95;13.75;;;18.80;99.90;;;;;;4900315;29;20070;-87
2022/09/06 07:56:00;;;;;;;18.63;13.77;;;18.70;99.90;;;;;;4900666;29;20126;-88
2022/09/06 07:58:27;;;;;;;19.17;14.38;;;18.80;99.90;;;;;;4899603;29;20048;-87
2022/09/06 08:00:52;;;;;;;20.75;14.18;;;19.30;99.90;;;;;;4900381;29;20048;-87
2022/09/06 08:03:18;;;;;;;19.30;13.60;;;18.80;99.90;;;;;;4900409;29;20116;-87
2022/09/06 08:05:48;;;;;;;19.45;13.65;;;18.80;99.90;;;;;;4899468;29;20095;-87
2022/09/06 08:08:13;;;;;;;17.70;13.18;;;18.90;99.90;;;;;;4914641;29;20519;-86
2022/09/06 08:10:41;;;;;;;18.80;13.35;;;18.90;99.90;;;;;;4896541;29;20053;-87
2022/09/06 08:13:08;;;;;;;20.30;14.35;;;19.00;99.90;;;;;;4881504;29;20088;-86
2022/09/06 08:15:36;;;;;;;22.48;14.05;;;19.10;99.90;;;;;;4897722;29;20056;-87
2022/09/06 08:18:02;;;;;;;19.15;13.00;;;19.20;99.90;;;;;;4880432;29;20041;-88
2022/09/06 08:20:27;;;;;;;20.60;13.65;;;19.30;99.90;;;;;;4880376;29;20107;-88
2022/09/06 08:22:53;;;;;;;19.00;13.75;;;20.00;99.90;;;;;;4894154;29;20033;-88
2022/09/06 08:25:19;;;;;;;18.45;13.10;;;19.60;99.90;;;;;;4923843;29;20079;-88
2022/09/06 08:27:44;;;;;;;20.42;12.57;;;20.20;99.90;;;;;;4916691;29;20048;-88
2022/09/06 08:30:10;;;;;;;18.75;13.93;;;20.30;99.90;;;;;;4921829;29;20043;-90
2022/09/06 08:32:37;;;;;;;19.58;13.23;;;20.00;99.90;;;;;;4935373;29;20079;-89
2022/09/06 08:35:04;;;;;;;18.73;13.27;;;20.70;99.90;;;;;;4918955;29;20404;-90
2022/09/06 08:37:30;;;;;;;17.42;12.60;;;20.40;99.90;;;;;;4935727;29;20039;-88
2022/09/06 08:39:55;;;;;;;18.50;13.85;;;20.50;99.90;;;;;;4918788;29;20055;-89
2022/09/06 08:42:23;;;;;;;17.40;13.43;;;20.50;99.90;;;;;;4918893;29;20039;-89
2022/09/06 08:44:51;;;;;;;19.73;12.68;;;20.50;99.90;;;;;;4935616;29;20166;-88
2022/09/06 08:47:19;;;;;;;19.48;13.52;;;20.50;99.90;;;;;;4918081;29;20043;-91
2022/09/06 08:50:00;;;;;;;16.95;13.07;;;20.70;99.90;;;;;;4935816;29;20051;-91
2022/09/06 08:52:49;;;;;;;17.33;12.80;;;20.80;99.90;;;;;;4918734;29;20056;-92
2022/09/06 08:55:44;;;;;;;19.80;13.52;;;20.80;99.90;;;;;;4927448;29;20048;-92
2022/09/06 08:58:21;;;;;;;17.45;12.82;;;21.00;99.90;;;;;;4918238;29;20130;-89
2022/09/06 09:00:57;;;;;;;18.08;12.82;;;21.10;99.90;;;;;;4917530;29;20131;-93
2022/09/06 09:03:33;;;;;;;19.73;12.70;;;21.20;99.90;;;;;;4936655;29;20378;-92
2022/09/06 09:06:00;;;;;;;19.40;12.85;;;21.50;99.90;;;;;;4922279;29;20400;-89
2022/09/06 09:08:33;;;;;;;17.02;12.13;;;21.60;99.90;;;;;;4911220;29;20130;-89
2022/09/06 09:11:02;;;;;;;;;;;21.80;99.90;;;;;;5116251;23;20051;-89
2022/09/06 09:13:55;;;;;;;17.48;12.57;;;21.80;99.90;;;;;;4899158;29;19927;-87
2022/09/06 09:16:40;;;;;;;16.50;12.52;;;21.90;99.90;;;;;;4898254;29;20067;-87
2022/09/06 09:19:15;;;;;;;16.23;11.23;;;22.10;99.90;;;;;;4894238;29;20052;-88
2022/09/06 09:25:23;;;;;;;16.98;11.63;;;22.20;99.90;;;;;;4897247;29;20124;-89
2022/09/06 09:27:56;;;;;;;17.02;11.85;;;22.70;99.90;;;;;;4907947;29;20369;-89
2022/09/06 09:30:44;;;;;;;;;;;23.10;99.90;;;;;;4922388;29;20051;-90
2022/09/06 09:33:38;;;;;;;18.00;11.02;;;22.90;99.90;;;;;;4925362;29;20390;-89
2022/09/06 09:36:35;;;;;;;15.38;11.27;;;23.00;99.90;;;;;;4908331;29;20142;-88
2022/09/06 09:42:42;;;;;;;13.85;9.38;;;23.30;99.90;;;;;;4916211;29;20131;-90
2022/09/06 09:45:36;;;;;;;13.68;9.85;;;23.40;99.90;;;;;;4916153;29;20063;-89
2022/09/06 09:48:58;;;;;;;15.52;9.35;;;23.60;99.90;;;;;;4902519;29;20059;-89
2022/09/06 09:52:01;;;;;;;14.07;9.25;;;23.60;99.90;;;;;;4915682;29;20048;-90
2022/09/06 09:54:30;;;;;;;14.15;8.10;;;23.70;99.90;;;;;;4899127;29;20059;-89
2022/09/06 09:56:56;;;;;;;13.48;9.23;;;23.90;99.90;;;;;;5058418;23;20045;-89
2022/09/06 10:02:38;;;;;;;15.25;8.07;;;24.00;99.90;;;;;;4879500;29;20048;-90
2022/09/06 10:05:16;;;;;;;14.57;7.78;;;24.20;99.90;;;;;;4861535;29;20135;-89
2022/09/06 10:08:10;;;;;;;12.68;7.57;;;24.40;99.90;;;;;;4879121;29;20093;-89
2022/09/06 10:10:51;;;;;;;14.05;8.00;;;24.60;99.90;;;;;;4880475;29;20505;-91
2022/09/06 10:13:25;;;;;;;13.38;7.25;;;24.80;99.90;;;;;;4882045;29;20124;-89
2022/09/06 10:15:52;;;;;;;11.35;6.78;;;25.00;99.90;;;;;;4896563;29;20052;-89
2022/09/06 10:18:39;;;;;;;12.20;6.85;;;25.10;99.90;;;;;;4881876;29;20398;-90
2022/09/06 10:21:10;;;;;;;11.45;7.05;;;25.30;99.90;;;;;;4883846;29;20048;-89
2022/09/06 10:24:03;;;;;;;11.27;6.70;;;25.40;99.90;;;;;;4883888;29;20045;-89
2022/09/06 10:26:52;;;;;;;10.50;6.05;;;25.60;99.90;;;;;;4883159;29;20049;-90
2022/09/06 10:29:39;;;;;;;11.57;6.82;;;25.70;99.90;;;;;;4883827;29;20061;-90
2022/09/06 10:32:38;;;;;;;9.98;6.18;;;25.80;99.90;;;;;;4883196;29;20040;-92
2022/09/06 10:35:43;;;;;;;14.30;6.57;;;25.80;99.90;;;;;;4886745;29;20531;-92
2022/09/06 10:44:34;;;;;;;9.30;4.03;;;26.30;99.90;;;;;;4919110;23;20125;-90
2022/09/06 10:47:11;;;;;;;11.43;5.22;;;26.20;99.90;;;;;;4864010;29;20064;-90
2022/09/06 10:49:39;;;;;;;21.98;5.88;;;26.60;99.90;;;;;;4864416;29;20139;-91
2022/09/06 10:52:10;;;;;;;10.85;4.65;;;26.70;99.90;;;;;;4865176;29;20509;-92
2022/09/06 10:54:39;;;;;;;9.23;4.70;;;26.80;99.90;;;;;;4863871;29;20164;-93
2022/09/06 10:57:14;;;;;;;9.00;4.78;;;27.00;99.90;;;;;;4881496;29;20052;-91
2022/09/06 10:59:51;;;;;;;11.20;4.80;;;27.10;99.90;;;;;;4880901;29;20049;-93
2022/09/06 11:02:42;;;;;;;10.13;4.85;;;27.20;99.90;;;;;;4864503;29;20406;-91
2022/09/06 11:05:11;;;;;;;9.30;4.60;;;27.30;98.70;;;;;;4864766;29;20139;-92
2022/09/06 11:08:32;;;;;;;9.43;4.65;;;27.70;99.80;;;;;;4863816;29;20057;-88
2022/09/06 11:11:14;;;;;;;11.27;4.60;;;27.70;98.80;;;;;;4888124;29;20396;-87
2022/09/06 11:13:52;;;;;;;10.70;5.20;;;27.80;98.40;;;;;;4887120;29;20037;-87
2022/09/06 11:20:38;;;;;;;12.75;6.50;;;27.90;97.30;;;;;;4879916;29;20052;-86
2022/09/06 11:23:38;;;;;;;10.15;5.60;;;27.60;98.40;;;;;;4864016;29;20053;-86
2022/09/06 11:26:39;;;;;;;11.68;5.65;;;27.90;98.20;;;;;;4880934;29;20092;-87
2022/09/06 11:29:38;;;;;;;10.18;5.60;;;27.80;97.40;;;;;;4863118;29;20072;-86
2022/09/06 11:32:54;;;;;;;9.63;5.82;;;27.80;98.30;;;;;;4887202;23;20193;-87
2022/09/06 11:35:30;;;;;;;10.07;5.20;;;28.00;98.20;;;;;;4862581;29;20060;-87
2022/09/06 11:38:30;;;;;;;8.88;4.90;;;28.70;98.20;;;;;;4846631;29;20085;-85
2022/09/06 11:41:17;;;;;;;8.60;4.90;;;28.50;97.10;;;;;;4841220;29;20132;-85
2022/09/06 11:44:08;;;;;;;12.80;4.60;;;28.80;96.20;;;;;;4839888;29;20046;-87
2022/09/06 11:46:42;;;;;;;9.10;5.05;;;28.50;95.80;;;;;;4874823;29;20607;-88
2022/09/06 11:49:42;;;;;;;9.98;4.80;;;28.70;96.90;;;;;;4858603;29;20102;-87
2022/09/06 11:56:03;;;;;;;11.65;5.13;;;28.90;96.00;;;;;;5088592;23;20139;-84
2022/09/06 12:01:15;;;;;;;8.70;4.53;;;28.70;95.90;;;;;;4897264;29;20060;-85
2022/09/06 12:03:51;;;;;;;9.13;4.97;;;28.60;95.40;;;;;;4881084;29;20127;-84
2022/09/06 12:06:21;;;;;;;8.73;4.50;;;28.60;95.80;;;;;;4881350;29;20044;-84
2022/09/06 12:08:48;;;;;;;9.90;4.85;;;28.60;95.40;;;;;;4881578;29;20049;-84
2022/09/06 12:11:35;;;;;;;10.63;5.07;;;28.60;95.50;;;;;;4880664;29;20055;-84
2022/09/06 12:14:41;;;;;;;9.98;5.30;;;28.80;94.90;;;;;;4898171;29;20451;-84
2022/09/06 12:17:07;;;;;;;9.40;4.70;;;29.00;94.80;;;;;;4898028;29;20056;-84
2022/09/06 12:19:42;;;;;;;9.70;5.00;;;29.20;95.40;;;;;;5170817;23;20050;-84
2022/09/06 12:22:28;;;;;;;9.02;4.78;;;29.40;95.00;;;;;;4864588;29;20136;-83
2022/09/06 12:25:02;;;;;;;11.15;4.72;;;29.50;94.70;;;;;;4848513;29;20491;-82
2022/09/06 12:27:33;;;;;;;9.63;5.47;;;29.70;95.00;;;;;;4865896;29;20053;-83
2022/09/06 12:30:11;;;;;;;10.18;5.00;;;29.90;94.50;;;;;;4864465;29;20038;-82
2022/09/06 12:32:47;;;;;;;8.68;4.88;;;30.00;93.80;;;;;;4863085;29;20053;-82
2022/09/06 12:35:25;;;;;;;9.30;5.18;;;30.00;93.80;;;;;;4864292;29;20041;-82
2022/09/06 12:38:00;;;;;;;11.85;5.28;;;30.10;93.70;;;;;;4867884;29;20045;-83
2022/09/06 12:40:32;;;;;;;10.13;5.20;;;29.80;93.40;;;;;;4865422;29;20402;-83
2022/09/06 12:42:58;;;;;;;10.95;5.03;;;30.00;94.10;;;;;;4873691;29;20486;-83
2022/09/06 12:45:26;;;;;;;9.18;5.00;;;30.10;94.10;;;;;;4871202;29;20060;-83
2022/09/06 12:48:10;;;;;;;9.48;4.78;;;30.20;93.80;;;;;;4861850;29;20482;-83
2022/09/06 12:50:43;;;;;;;8.82;4.63;;;30.50;93.80;;;;;;4852558;29;20064;-83
2022/09/06 12:53:24;;;;;;;9.32;5.32;;;30.40;92.90;;;;;;4840649;29;20379;-83
2022/09/06 12:56:13;;;;;;;9.00;5.40;;;30.40;93.00;;;;;;4859752;29;20046;-83
2022/09/06 12:58:40;;;;;;;9.90;4.65;;;30.40;92.90;;;;;;4858279;29;20109;-83
2022/09/06 13:01:11;;;;;;;10.20;4.90;;;30.60;93.00;;;;;;4864816;29;20049;-84
2022/09/06 13:03:44;;;;;;;8.98;4.82;;;30.70;92.80;;;;;;4863968;29;20041;-83
2022/09/06 13:06:17;;;;;;;9.50;4.75;;;30.50;92.60;;;;;;4854501;29;20062;-84
2022/09/06 13:17:37;;;;;;;8.07;3.95;;;30.90;92.40;;;;;;4896370;29;20139;-86
2022/09/06 13:20:46;;;;;;;9.25;4.18;;;30.90;91.60;;;;;;4896345;29;20052;-86
2022/09/06 13:23:42;;;;;;;10.02;4.40;;;30.90;90.70;;;;;;4897655;29;20076;-86
2022/09/06 13:26:41;;;;;;;8.82;4.10;;;31.00;90.60;;;;;;4856981;29;20049;-85
2022/09/06 13:29:15;;;;;;;9.27;3.85;;;30.50;90.20;;;;;;5116373;23;20049;-85
2022/09/06 13:31:53;;;;;;;8.38;4.03;;;30.20;91.40;;;;;;4968682;23;20052;-85
2022/09/06 13:40:58;;;;;;;8.23;3.80;;;30.10;90.90;;;;;;5941309;23;20280;-86
2022/09/06 14:03:51;;;;;;;9.32;3.70;;;29.70;90.90;;;;;;4884788;29;20057;-87
2022/09/06 14:06:35;;;;;;;7.82;3.53;;;29.70;90.70;;;;;;4868631;29;20076;-87
2022/09/06 14:13:17;;;;;;;8.07;3.38;;;29.20;90.50;;;;;;4856289;29;20520;-86
2022/09/06 14:16:35;;;;;;;8.95;3.30;;;29.30;91.00;;;;;;4859203;29;20056;-86
2022/09/06 14:19:14;;;;;;;9.70;3.50;;;29.50;90.60;;;;;;4844015;29;20414;-86
2022/09/06 14:22:29;;;;;;;7.88;3.63;;;29.40;90.90;;;;;;4839376;29;20529;-86
2022/09/06 14:25:46;;;;;;;7.60;3.40;;;29.40;90.50;;;;;;4842597;29;20049;-86
2022/09/06 14:28:32;;;;;;;8.73;3.40;;;29.60;90.90;;;;;;4845641;29;20135;-86
2022/09/06 14:31:17;;;;;;;8.40;3.53;;;30.10;90.60;;;;;;4844887;29;20055;-87
2022/09/06 14:33:43;;;;;;;10.07;3.30;;;30.30;91.00;;;;;;4854774;29;20636;-87
2022/09/06 14:36:14;;;;;;;8.60;3.50;;;30.40;90.70;;;;;;4845762;29;20449;-87
2022/09/06 14:38:41;;;;;;;8.82;3.40;;;30.50;90.30;;;;;;4860016;29;20063;-86
2022/09/06 14:41:55;;;;;;;8.07;3.10;;;30.70;90.50;;;;;;4860936;29;20181;-86
2022/09/06 14:44:58;;;;;;;;;;;30.50;89.40;;;;;;4898632;29;20056;-87
2022/09/06 14:51:23;;;;;;;7.65;3.30;;;29.60;90.10;;;;;;4898756;29;20055;-87
2022/09/06 14:54:37;;;;;;;8.40;3.22;;;29.30;90.40;;;;;;4882411;29;20092;-88
2022/09/06 14:58:06;;;;;;;8.52;3.50;;;29.10;90.30;;;;;;4882630;29;20503;-89
2022/09/06 15:00:45;;;;;;;7.07;2.70;;;29.20;90.00;;;;;;4896099;29;20064;-83
2022/09/06 15:03:11;;;;;;;7.25;2.90;;;29.20;90.10;;;;;;4882558;29;20450;-86
2022/09/06 15:05:36;;;;;;;7.43;3.15;;;29.20;90.10;;;;;;4873502;23;20154;-86
2022/09/06 15:08:57;;;;;;;7.35;2.70;;;29.20;90.20;;;;;;4880902;29;20063;-86
2022/09/06 15:12:13;;;;;;;7.63;3.00;;;29.50;90.10;;;;;;4863392;29;20065;-85
2022/09/06 15:15:33;;;;;;;8.77;3.75;;;29.50;89.50;;;;;;4862939;29;20517;-86
2022/09/06 15:17:58;;;;;;;7.10;3.17;;;29.40;89.30;;;;;;4880731;29;20063;-86
2022/09/06 15:20:24;;;;;;;8.80;3.00;;;29.60;90.00;;;;;;4866953;29;20104;-88
2022/09/06 15:23:11;;;;;;;7.32;2.97;;;29.80;89.30;;;;;;4919244;23;20053;-87
2022/09/06 15:28:32;;;;;;;8.30;3.30;;;30.20;89.30;;;;;;4878548;29;20524;-88
2022/09/06 15:31:04;;;;;;;7.43;2.80;;;30.30;88.20;;;;;;4879503;29;20498;-87
2022/09/06 15:33:37;;;;;;;7.32;3.03;;;30.10;88.60;;;;;;4880522;29;20056;-87
2022/09/06 15:36:06;;;;;;;9.35;3.22;;;29.70;88.30;;;;;;4863636;29;20505;-89
2022/09/06 15:38:40;;;;;;;7.00;2.88;;;29.40;89.00;;;;;;4864175;29;20611;-87
2022/09/06 15:41:10;;;;;;;9.10;3.05;;;29.10;89.40;;;;;;4863237;29;20060;-88
2022/09/06 15:46:33;;;;;;;7.07;3.10;;;28.70;90.10;;;;;;4854064;29;20493;-93
2022/09/06 15:49:08;;;;;;;8.60;3.10;;;28.40;90.40;;;;;;4876609;29;20060;-93
2022/09/06 15:51:35;;;;;;;8.65;3.20;;;28.70;90.40;;;;;;4879117;29;20513;-92
2022/09/06 15:54:05;;;;;;;8.32;3.10;;;28.10;90.40;;;;;;4862530;29;20053;-89
2022/09/06 15:57:21;;;;;;;;;;;;;;;;;;;;;
2022/09/06 16:00:16;;;;;;;7.30;2.90;;;28.00;90.50;;;;;;4827967;29;20053;-93
2022/09/06 16:03:04;;;;;;;8.57;2.88;;;28.10;90.20;;;;;;4814695;29;20048;-94
2022/09/06 16:05:35;;;;;;;7.20;3.05;;;28.10;90.30;;;;;;4821292;29;20042;-94
2022/09/06 16:08:01;;;;;;;7.13;2.92;;;28.10;90.30;;;;;;4826266;29;20150;-95
2022/09/06 16:10:41;;;;;;;10.23;3.00;;;28.00;90.60;;;;;;4826085;29;20519;-95
2022/09/06 16:14:00;;;;;;;9.23;3.22;;;27.80;90.60;;;;;;4823106;29;20046;-96
2022/09/06 16:16:46;;;;;;;9.70;3.35;;;27.70;90.30;;;;;;4831324;29;20057;-96
2022/09/06 16:19:44;;;;;;;7.43;2.90;;;27.50;91.10;;;;;;4840317;29;20050;-96
2022/09/06 16:23:10;;;;;;;;;;;;;;;;;;;;;
2022/09/06 16:26:35;;;;;;;7.25;2.95;;;27.50;91.10;;;;;;4881766;29;20090;-96